Time;durP1;ratioP1;P1;durP2;ratioP2;P2;SDS_P1;SDS_P2;PMS_P1;PMS_P2;Temp;Humidity;BMP_temperature;BMP_pressure;BME280_temperature;BME280_humidity;BME280_pressure;Samples;Min_cycle;Max_cycle;Signal;HPM_P1;HPM_P2
2022/11/19 00:45:35;;;;;;;14.52;8.00;;;;;;;8.98;100.00;97704.25;6086108;22;8962236;-96
2022/11/19 01:00:23;;;;;;;;;;;;;;;;;;;;;
2022/11/19 01:14:22;;;;;;;;;;;;;;;;;;;;;
2022/11/19 01:44:17;;;;;;;;;;;;;;;;;;;;;
2022/11/19 01:47:13;;;;;;;18.17;11.32;;;;;;;9.10;100.00;97719.69;6337039;22;20221;-96
2022/11/19 01:49:50;;;;;;;21.67;11.18;;;;;;;9.00;100.00;97702.38;6338539;22;20024;-96
2022/11/19 01:52:44;;;;;;;;;;;;;;;;;;;;;
2022/11/19 02:03:04;;;;;;;;;;;;;;;;;;;;;
2022/11/19 02:10:22;;;;;;;13.73;6.72;;;;;;;9.36;100.00;97725.78;5951269;24;20433;-96
2022/11/19 02:13:09;;;;;;;15.87;7.80;;;;;;;9.27;100.00;97699.63;5934201;23;20060;-96
2022/11/19 02:15:37;;;;;;;19.20;8.75;;;;;;;9.19;100.00;97684.00;5955076;24;20327;-95
2022/11/19 02:22:01;;;;;;;15.73;9.50;;;;;;;9.13;100.00;97671.84;6067890;23;20026;-96
2022/11/19 02:24:49;;;;;;;15.57;8.90;;;;;;;9.30;100.00;97705.66;6126752;23;20049;-95
2022/11/19 03:18:57;;;;;;;14.52;7.88;;;;;;;9.68;100.00;97649.34;6284732;22;2162660;-96
2022/11/19 03:21:30;;;;;;;18.45;8.68;;;;;;;9.66;100.00;97657.34;6395795;22;20006;-96
2022/11/19 03:24:04;;;;;;;16.60;8.93;;;;;;;9.65;100.00;97674.22;6395719;22;20022;-96
2022/11/19 03:26:34;;;;;;;20.00;9.52;;;;;;;9.46;100.00;97664.34;6396301;22;20043;-96
2022/11/19 03:29:12;;;;;;;18.92;8.93;;;;;;;9.27;100.00;97657.19;6395397;22;19998;-96
2022/11/19 03:32:00;;;;;;;17.67;8.70;;;;;;;9.15;100.00;97669.13;6400176;22;20040;-96
2022/11/19 03:34:30;;;;;;;14.80;8.38;;;;;;;9.08;100.00;97671.16;6395652;22;20048;-96
2022/11/19 03:37:01;;;;;;;16.90;9.27;;;;;;;9.04;100.00;97667.78;6395948;22;20022;-96
2022/11/19 03:39:37;;;;;;;16.40;8.40;;;;;;;9.02;100.00;97659.00;6395953;22;20033;-96
2022/11/19 03:42:25;;;;;;;17.55;9.60;;;;;;;9.10;100.00;97666.66;6401781;22;20034;-96
2022/11/19 03:45:19;;;;;;;15.85;8.48;;;;;;;8.94;100.00;97665.53;6374096;22;20021;-96
2022/11/19 03:47:49;;;;;;;16.95;8.60;;;;;;;8.89;100.00;97668.38;6395524;22;20014;-96
2022/11/19 03:50:24;;;;;;;17.90;9.77;;;;;;;8.90;100.00;97669.22;6396301;22;20007;-96
2022/11/19 03:52:50;;;;;;;15.88;9.05;;;;;;;8.94;100.00;97668.19;6365221;22;20026;-96
2022/11/19 03:55:17;;;;;;;16.27;8.60;;;;;;;8.92;100.00;97660.28;6364146;22;20017;-96
2022/11/19 04:09:36;;;;;;;15.57;7.50;;;;;;;8.88;100.00;97657.81;6078409;23;20024;-96
2022/11/19 04:13:31;;;;;;;;;;;;;;;;;;;;;
2022/11/19 04:20:15;;;;;;;12.18;5.30;;;;;;;9.41;100.00;97662.78;5918116;23;20163;-96
2022/11/19 04:29:09;;;;;;;11.13;5.50;;;;;;;9.34;100.00;97643.59;6327922;22;20026;-96
2022/11/19 04:31:39;;;;;;;14.02;7.50;;;;;;;9.37;100.00;97655.91;6326981;22;20026;-95
2022/11/19 04:34:13;;;;;;;13.68;7.65;;;;;;;9.36;100.00;97660.31;6329290;22;20022;-96
2022/11/19 04:43:44;;;;;;;11.30;6.30;;;;;;;9.24;100.00;97640.47;6328708;22;20008;-95
2022/11/19 04:46:44;;;;;;;13.98;6.43;;;;;;;9.35;100.00;97677.19;6329527;22;20027;-95
2022/11/19 04:53:56;;;;;;;;;;;;;;;;;;;;;
2022/11/19 04:56:51;;;;;;;14.32;7.78;;;;;;;8.93;100.00;97653.19;6025235;23;20039;-96
2022/11/19 04:59:35;;;;;;;16.73;8.85;;;;;;;8.76;100.00;97681.22;6024185;23;20218;-96
2022/11/19 05:02:03;;;;;;;16.90;8.80;;;;;;;8.75;100.00;97683.91;6070534;23;20022;-94
2022/11/19 05:04:34;;;;;;;16.23;8.85;;;;;;;8.62;100.00;97670.25;6129002;23;20051;-96
2022/11/19 05:07:01;;;;;;;16.13;8.55;;;;;;;8.64;100.00;97686.97;6177321;23;20001;-95
2022/11/19 05:12:39;;;;;;;14.50;8.63;;;;;;;8.58;100.00;97658.03;6018104;23;20495;-95
2022/11/19 05:19:04;;;;;;;13.52;7.05;;;;;;;8.88;100.00;97697.56;6013354;23;20031;-95
2022/11/19 05:21:38;;;;;;;17.67;7.40;;;;;;;8.79;100.00;97667.81;6007133;23;20514;-96
2022/11/19 05:24:23;;;;;;;16.30;7.30;;;;;;;9.01;100.00;97699.69;6024678;23;20024;-96
2022/11/19 05:26:56;;;;;;;13.60;6.65;;;;;;;8.84;100.00;97671.16;6007708;23;20031;-96
2022/11/19 05:29:27;;;;;;;13.55;7.03;;;;;;;9.04;100.00;97694.28;6010150;23;20067;-96
2022/11/19 05:32:35;;;;;;;13.15;6.38;;;;;;;8.91;100.00;97665.63;6011245;23;20019;-95
2022/11/19 05:35:52;;;;;;;12.70;6.55;;;;;;;8.86;100.00;97663.16;6011566;23;20041;-95
2022/11/19 05:39:37;;;;;;;14.07;6.10;;;;;;;9.10;100.00;97706.44;6035720;23;20034;-96
2022/11/19 05:43:22;;;;;;;13.95;7.05;;;;;;;8.84;100.00;97665.00;5975487;24;20044;-95
2022/11/19 05:53:27;;;;;;;13.20;6.68;;;;;;;8.98;100.00;97683.91;5948964;24;20027;-96
2022/11/19 05:57:15;;;;;;;12.13;6.85;;;;;;;9.18;100.00;97696.41;6072807;23;20030;-96
2022/11/19 06:43:49;;;;;;;14.07;4.50;;;;;;;9.50;100.00;97654.47;6326487;22;20019;-95
2022/11/19 06:46:23;;;;;;;11.93;4.65;;;;;;;9.58;100.00;97652.34;6353807;22;20019;-95
2022/11/19 06:49:29;;;;;;;14.85;8.52;;;;;;;9.85;100.00;97698.16;6327342;22;20019;-95
2022/11/19 07:33:39;;;;;;;20.20;10.50;;;;;;;9.89;100.00;97698.91;6330622;22;20045;-96
2022/11/19 07:36:07;;;;;;;13.77;7.03;;;;;;;9.83;100.00;97692.03;6321746;22;20016;-96
2022/11/19 07:38:34;;;;;;;13.27;6.60;;;;;;;9.72;100.00;97706.69;6336673;22;20023;-94
2022/11/19 07:40:59;;;;;;;10.70;5.18;;;;;;;9.75;100.00;97704.75;6310186;22;20110;-95
2022/11/19 07:43:25;;;;;;;9.90;3.10;;;;;;;9.69;100.00;97698.84;6314802;22;20015;-94
2022/11/19 07:45:51;;;;;;;7.15;3.00;;;;;;;9.77;100.00;97696.72;6339758;22;20029;-95
2022/11/19 07:48:17;;;;;;;9.25;3.30;;;;;;;9.81;100.00;97704.50;6337434;22;20011;-95
2022/11/19 07:50:49;;;;;;;27.00;18.33;;;;;;;9.87;100.00;97712.22;6311778;22;20019;-95
2022/11/19 07:53:15;;;;;;;15.02;7.88;;;;;;;9.92;100.00;97719.16;6311407;22;20093;-95
2022/11/19 07:55:42;;;;;;;20.65;8.52;;;;;;;9.94;100.00;97720.81;6311560;22;20015;-94
2022/11/19 07:58:08;;;;;;;14.55;7.53;;;;;;;9.80;100.00;97694.81;6337136;22;20024;-96
2022/11/19 08:00:34;;;;;;;15.77;9.00;;;;;;;10.01;100.00;97732.88;6311090;22;20471;-94
2022/11/19 08:03:01;;;;;;;15.48;7.38;;;;;;;9.96;100.00;97704.81;6311620;22;20119;-95
2022/11/19 08:05:27;;;;;;;15.32;8.00;;;;;;;10.11;100.00;97725.41;6337462;22;20468;-96
2022/11/19 08:07:54;;;;;;;15.93;7.72;;;;;;;10.08;100.00;97720.22;6313314;22;20019;-96
2022/11/19 08:10:20;;;;;;;17.23;11.13;;;;;;;10.18;100.00;97736.66;6339455;22;20106;-95
2022/11/19 08:13:01;;;;;;;14.75;9.82;;;;;;;10.16;100.00;97723.41;6311311;22;20015;-95
2022/11/19 08:15:28;;;;;;;13.40;6.60;;;;;;;10.04;100.00;97706.22;6312252;22;20482;-95
2022/11/19 08:20:54;;;;;;;11.95;5.07;;;;;;;10.30;100.00;97714.03;5114835;27;20401;-95
2022/11/19 08:23:23;;;;;;;13.57;3.90;;;;;;;9.98;100.00;97698.50;5100672;28;20047;-94
2022/11/19 08:25:49;;;;;;;9.73;5.10;;;;;;;9.97;100.00;97702.06;5098243;28;20521;-94
2022/11/19 08:28:15;;;;;;;12.80;5.70;;;;;;;9.85;100.00;97687.53;5101726;28;20052;-94
2022/11/19 08:30:41;;;;;;;12.18;7.22;;;;;;;9.93;100.00;97711.13;5100981;28;20036;-95
2022/11/19 08:33:07;;;;;;;9.10;4.97;;;;;;;9.72;100.00;97681.00;5102450;28;20043;-95
2022/11/19 08:35:33;;;;;;;9.90;4.80;;;;;;;9.79;100.00;97663.88;5102739;28;20473;-94
2022/11/19 08:38:01;;;;;;;10.23;4.60;;;;;;;10.02;100.00;97696.59;5099127;28;20085;-96
2022/11/19 08:40:27;;;;;;;13.38;5.82;;;;;;;10.00;100.00;97674.53;5096114;28;20044;-95
2022/11/19 08:43:00;;;;;;;7.03;3.95;;;;;;;9.86;100.00;97675.97;5097429;28;20110;-95
2022/11/19 08:45:28;;;;;;;11.32;4.30;;;;;;;9.99;100.00;97684.28;5097545;28;20068;-95
2022/11/19 08:47:54;;;;;;;18.50;10.02;;;;;;;9.89;100.00;97688.28;5096368;28;20058;-95
2022/11/19 08:50:21;;;;;;;10.82;5.57;;;;;;;9.83;100.00;97691.19;5097310;28;20040;-93
2022/11/19 08:52:52;;;;;;;12.48;5.22;;;;;;;9.79;100.00;97686.91;5097439;28;20044;-96
2022/11/19 08:55:20;;;;;;;12.98;4.22;;;;;;;9.86;100.00;97697.19;5103988;28;20060;-96
2022/11/19 08:57:46;;;;;;;8.27;3.58;;;;;;;9.98;100.00;97692.34;5102480;28;20038;-94
2022/11/19 09:00:13;;;;;;;10.18;4.25;;;;;;;10.06;100.00;97679.56;5100997;28;20565;-95
2022/11/19 09:02:39;;;;;;;10.45;3.35;;;;;;;10.02;100.00;97685.97;5102758;28;20054;-95
2022/11/19 09:05:06;;;;;;;6.57;3.05;;;;;;;9.94;100.00;97670.34;5100150;28;20111;-94
2022/11/19 09:07:32;;;;;;;6.82;3.53;;;;;;;10.08;100.00;97681.25;5100592;28;20051;-95
2022/11/19 09:09:58;;;;;;;7.82;3.63;;;;;;;9.93;100.00;97651.81;5100813;28;20390;-95
2022/11/19 09:12:29;;;;;;;8.70;3.50;;;;;;;10.03;100.00;97669.94;5102904;28;20094;-96
2022/11/19 09:14:55;;;;;;;7.80;3.00;;;;;;;10.04;100.00;97665.50;5101518;28;20058;-94
2022/11/19 09:17:21;;;;;;;10.23;4.90;;;;;;;10.10;100.00;97649.28;5098755;28;20067;-94
2022/11/19 09:19:47;;;;;;;11.55;3.75;;;;;;;10.37;100.00;97680.97;5098242;28;20058;-95
2022/11/19 09:22:13;;;;;;;7.45;3.40;;;;;;;10.27;100.00;97644.09;5099541;28;20142;-93
2022/11/19 09:24:38;;;;;;;12.68;4.32;;;;;;;10.35;100.00;97645.63;5101565;28;20059;-94
2022/11/19 09:27:04;;;;;;;23.20;12.02;;;;;;;10.43;100.00;97646.13;5103103;28;20052;-94
2022/11/19 09:29:32;;;;;;;14.77;9.75;;;;;;;10.55;100.00;97664.19;5103847;28;20044;-92
2022/11/19 09:31:58;;;;;;;10.52;5.03;;;;;;;10.51;100.00;97661.75;5089965;28;20543;-96
2022/11/19 09:34:24;;;;;;;7.57;3.30;;;;;;;10.58;100.00;97650.78;5090596;28;20412;-95
2022/11/19 09:36:50;;;;;;;8.30;2.90;;;;;;;10.68;100.00;97665.38;5090279;28;20059;-95
2022/11/19 09:39:16;;;;;;;7.13;3.13;;;;;;;10.75;100.00;97660.63;5089838;28;20043;-95
2022/11/19 09:41:49;;;;;;;12.70;7.07;;;;;;;10.55;100.00;97666.00;5090027;28;20048;-96
2022/11/19 09:44:37;;;;;;;8.18;3.50;;;;;;;10.68;100.00;97656.53;5089107;28;20120;-95
2022/11/19 09:47:17;;;;;;;9.35;4.53;;;;;;;10.60;100.00;97666.63;5090237;28;20044;-96
2022/11/19 09:49:48;;;;;;;11.07;3.95;;;;;;;10.67;100.00;97665.44;5070757;28;20135;-94
2022/11/19 09:52:18;;;;;;;6.43;3.00;;;;;;;10.62;100.00;97640.84;5069909;28;20040;-96
2022/11/19 09:54:48;;;;;;;10.45;4.22;;;;;;;10.55;100.00;97637.59;5082931;28;20112;-94
2022/11/19 09:57:20;;;;;;;10.93;4.20;;;;;;;10.54;100.00;97648.31;5088412;28;20047;-94
2022/11/19 09:59:50;;;;;;;6.60;3.83;;;;;;;10.56;100.00;97649.09;5089799;28;20044;-96
2022/11/19 10:02:20;;;;;;;31.20;22.98;;;;;;;10.25;100.00;97610.56;5089048;28;20048;-93
2022/11/19 10:04:48;;;;;;;10.48;6.93;;;;;;;10.31;100.00;97618.31;5089888;28;20051;-95
2022/11/19 10:07:27;;;;;;;9.35;6.22;;;;;;;10.30;100.00;97613.94;5089619;28;20040;-95
2022/11/19 10:10:10;;;;;;;7.85;2.70;;;;;;;10.34;100.00;97610.19;5088364;28;20068;-93
2022/11/19 10:12:55;;;;;;;8.93;2.92;;;;;;;10.42;100.00;97601.88;5068670;28;20036;-93
2022/11/19 10:15:31;;;;;;;6.40;2.92;;;;;;;10.48;100.00;97599.81;5086905;28;20079;-92
2022/11/19 10:18:09;;;;;;;6.35;2.88;;;;;;;10.59;100.00;97611.75;5087111;28;20059;-94
2022/11/19 10:20:51;;;;;;;7.37;3.70;;;;;;;10.50;100.00;97588.25;5088377;28;20138;-94
2022/11/19 10:23:21;;;;;;;9.38;3.92;;;;;;;10.46;100.00;97588.38;5087031;28;20284;-92
2022/11/19 10:25:51;;;;;;;12.35;8.05;;;;;;;10.35;100.00;97582.69;5086246;28;20562;-91
2022/11/19 10:28:21;;;;;;;15.48;6.85;;;;;;;10.19;100.00;97586.94;5087038;28;20428;-94
2022/11/19 10:30:51;;;;;;;13.38;8.05;;;;;;;10.25;100.00;97594.63;5085226;28;20484;-94
2022/11/19 10:33:24;;;;;;;11.35;6.40;;;;;;;10.21;100.00;97599.25;5085317;28;20097;-93
2022/11/19 10:35:56;;;;;;;8.52;4.60;;;;;;;10.20;100.00;97602.81;5084367;28;20097;-91
2022/11/19 10:38:26;;;;;;;7.32;2.97;;;;;;;10.38;100.00;97619.75;5082659;28;20131;-94
2022/11/19 10:40:57;;;;;;;8.73;3.63;;;;;;;10.21;100.00;97585.97;5085560;28;20040;-93
2022/11/19 10:43:29;;;;;;;13.68;4.00;;;;;;;10.24;100.00;97579.63;5083768;28;20039;-93
2022/11/19 10:45:59;;;;;;;9.32;3.40;;;;;;;10.33;100.00;97575.75;5081999;28;20043;-94
2022/11/19 10:48:38;;;;;;;10.75;5.93;;;;;;;10.26;100.00;97565.34;5084660;28;20528;-96
2022/11/19 10:51:11;;;;;;;7.45;4.40;;;;;;;10.39;100.00;97576.31;5083919;28;20048;-92
2022/11/19 10:53:39;;;;;;;8.63;5.40;;;;;;;10.31;100.00;97554.53;5082496;28;20078;-94
2022/11/19 10:56:12;;;;;;;12.32;5.65;;;;;;;10.29;100.00;97532.50;5091889;28;20405;-94
2022/11/19 10:58:44;;;;;;;9.15;3.92;;;;;;;10.40;100.00;97530.19;5094246;28;20040;-94
2022/11/19 11:01:21;;;;;;;7.20;4.38;;;;;;;10.42;100.00;97519.50;5083792;28;20083;-94
2022/11/19 11:03:51;;;;;;;9.10;4.03;;;;;;;10.54;100.00;97515.41;5086292;28;20071;-93
2022/11/19 11:06:17;;;;;;;7.63;4.13;;;;;;;10.55;100.00;97514.47;5084436;28;20068;-93
2022/11/19 11:08:48;;;;;;;7.35;3.75;;;;;;;10.67;100.00;97527.19;5083180;28;20074;-91
2022/11/19 11:14:50;;;;;;;9.32;6.32;;;;;;;10.52;100.00;97506.63;5087741;28;20089;-93
2022/11/19 11:17:20;;;;;;;16.98;8.95;;;;;;;10.51;100.00;97513.75;5100498;27;20375;-96
2022/11/19 11:19:56;;;;;;;11.98;5.90;;;;;;;10.62;100.00;97510.59;5086089;28;20087;-94
2022/11/19 11:22:22;;;;;;;13.23;6.05;;;;;;;10.58;100.00;97485.06;5083442;28;20083;-93
2022/11/19 11:24:48;;;;;;;13.23;6.82;;;;;;;10.52;100.00;97483.59;5088356;28;20044;-93
2022/11/19 11:27:23;;;;;;;9.52;6.85;;;;;;;10.59;100.00;97470.88;5084217;28;20134;-95
2022/11/19 11:30:03;;;;;;;19.40;10.48;;;;;;;10.58;100.00;97463.81;5085870;28;20048;-94
2022/11/19 11:32:31;;;;;;;11.07;6.30;;;;;;;10.57;100.00;97494.00;5083343;28;20047;-95
2022/11/19 11:34:58;;;;;;;12.02;6.90;;;;;;;10.37;100.00;97479.84;5084132;28;20083;-93
2022/11/19 11:37:26;;;;;;;9.43;5.75;;;;;;;10.34;100.00;97493.28;5085869;28;20492;-95
2022/11/19 11:39:54;;;;;;;11.18;7.10;;;;;;;10.23;100.00;97484.91;5086722;28;20366;-94
2022/11/19 11:42:23;;;;;;;10.70;6.35;;;;;;;10.26;100.00;97479.47;5091516;28;20051;-95
2022/11/19 11:44:51;;;;;;;11.75;5.80;;;;;;;10.26;100.00;97482.13;5078880;28;20044;-93
2022/11/19 11:47:19;;;;;;;11.13;6.40;;;;;;;10.17;100.00;97455.97;5088016;28;20040;-93
2022/11/19 11:49:54;;;;;;;12.30;6.10;;;;;;;10.17;100.00;97464.81;5080317;28;20391;-93
2022/11/19 11:52:25;;;;;;;13.18;6.15;;;;;;;10.31;100.00;97472.16;5082023;28;20139;-93
2022/11/19 11:54:57;;;;;;;16.00;10.10;;;;;;;10.24;100.00;97438.81;5079670;28;20071;-95
2022/11/19 11:57:25;;;;;;;10.32;5.65;;;;;;;10.14;100.00;97418.94;5078309;28;20112;-95
2022/11/19 11:59:52;;;;;;;22.98;10.57;;;;;;;10.08;100.00;97406.78;5079500;28;20044;-94
2022/11/19 12:02:21;;;;;;;9.70;5.10;;;;;;;10.13;100.00;97415.44;5077478;28;20049;-95
2022/11/19 12:04:49;;;;;;;;;;;;;;;10.29;100.00;97450.13;5081024;28;20081;-95
2022/11/19 12:07:41;;;;;;;11.80;6.90;;;;;;;10.08;100.00;97428.91;5079495;28;19920;-96
2022/11/19 12:10:21;;;;;;;8.73;4.05;;;;;;;10.15;100.00;97429.50;5072061;28;20074;-95
2022/11/19 12:12:59;;;;;;;8.95;5.40;;;;;;;10.14;100.00;97433.06;5082125;28;20587;-94
2022/11/19 12:15:37;;;;;;;9.57;5.03;;;;;;;10.35;100.00;97454.28;5092562;28;20507;-93
2022/11/19 12:18:13;;;;;;;9.70;4.32;;;;;;;10.27;100.00;97436.00;5082054;28;20047;-93
2022/11/19 12:20:50;;;;;;;6.88;3.95;;;;;;;10.15;100.00;97386.09;5097445;28;20044;-93
2022/11/19 12:23:37;;;;;;;7.15;3.80;;;;;;;10.18;100.00;97393.94;5057753;28;20102;-93
2022/11/19 12:26:15;;;;;;;10.90;5.90;;;;;;;10.22;100.00;97400.84;5075775;28;20055;-92
2022/11/19 12:29:05;;;;;;;12.18;6.90;;;;;;;10.14;100.00;97400.34;5072713;28;20036;-93
2022/11/19 12:31:57;;;;;;;10.63;5.65;;;;;;;10.11;100.00;97385.41;5081974;28;20048;-92
2022/11/19 12:35:02;;;;;;;9.10;5.28;;;;;;;10.05;100.00;97381.25;5036582;28;20052;-94
2022/11/19 12:37:54;;;;;;;10.00;4.93;;;;;;;10.01;100.00;97381.47;5099589;28;20060;-91
2022/11/19 12:40:34;;;;;;;9.98;4.57;;;;;;;10.02;100.00;97365.47;5081163;28;20068;-94
2022/11/19 12:43:15;;;;;;;9.30;5.20;;;;;;;9.95;100.00;97341.91;5082989;28;20135;-94
2022/11/19 12:45:50;;;;;;;10.88;4.78;;;;;;;10.18;100.00;97388.63;5098672;28;20037;-93
2022/11/19 12:48:36;;;;;;;11.18;5.80;;;;;;;10.11;100.00;97372.13;5094556;28;20086;-92
2022/11/19 12:51:11;;;;;;;20.00;9.02;;;;;;;10.07;100.00;97344.00;5066971;28;20045;-94
2022/11/19 12:54:07;;;;;;;11.20;6.30;;;;;;;10.12;100.00;97343.78;5074778;28;20623;-94
2022/11/19 12:56:45;;;;;;;8.35;5.03;;;;;;;9.99;100.00;97320.44;5075358;28;20041;-94
2022/11/19 12:59:28;;;;;;;8.57;4.45;;;;;;;10.06;100.00;97316.59;5085379;28;20041;-94
2022/11/19 13:01:56;;;;;;;8.50;4.28;;;;;;;10.20;100.00;97328.31;5073911;28;20037;-94
2022/11/19 13:04:27;;;;;;;7.90;4.93;;;;;;;10.11;100.00;97311.03;5067639;28;20041;-94
2022/11/19 13:07:00;;;;;;;9.27;4.70;;;;;;;10.24;100.00;97330.75;5070430;28;20413;-95
2022/11/19 13:09:36;;;;;;;8.25;5.75;;;;;;;10.19;100.00;97308.00;5065427;28;20055;-94
2022/11/19 13:12:06;;;;;;;9.57;5.35;;;;;;;10.07;100.00;97305.00;5081759;28;20058;-93
2022/11/19 13:14:38;;;;;;;9.10;6.13;;;;;;;10.12;100.00;97307.44;5083132;28;20182;-94
2022/11/19 13:17:14;;;;;;;8.07;4.32;;;;;;;10.12;100.00;97317.22;5084069;28;20398;-95
2022/11/19 13:19:42;;;;;;;9.98;5.68;;;;;;;10.00;100.00;97311.56;5083897;28;20045;-95
2022/11/19 13:22:15;;;;;;;9.02;5.85;;;;;;;10.11;100.00;97340.25;5082683;28;20048;-94
2022/11/19 13:24:45;;;;;;;11.82;6.68;;;;;;;9.92;100.00;97318.19;5070676;28;20049;-95
2022/11/19 13:27:14;;;;;;;10.30;5.63;;;;;;;9.90;100.00;97320.03;5064210;28;20040;-96
2022/11/19 13:29:44;;;;;;;8.88;4.25;;;;;;;9.95;100.00;97337.44;5065536;28;20386;-96
2022/11/19 13:32:17;;;;;;;6.35;4.00;;;;;;;10.02;100.00;97322.97;5065992;28;20076;-95
2022/11/19 13:34:55;;;;;;;5.90;3.88;;;;;;;10.01;100.00;97292.03;5067319;28;20044;-96
2022/11/19 13:37:45;;;;;;;12.07;6.03;;;;;;;10.02;100.00;97317.66;5067038;28;20062;-95
2022/11/19 13:40:20;;;;;;;8.80;4.10;;;;;;;9.90;100.00;97315.59;5066240;28;20040;-95
2022/11/19 13:46:00;;;;;;;7.90;4.53;;;;;;;9.75;100.00;97329.59;5140240;27;20382;-94
2022/11/19 13:48:32;;;;;;;11.57;7.35;;;;;;;9.78;100.00;97330.31;5136803;28;20043;-94
2022/11/19 13:51:02;;;;;;;11.68;7.20;;;;;;;9.80;100.00;97340.84;5137796;28;20043;-93
2022/11/19 13:53:32;;;;;;;6.30;3.70;;;;;;;9.76;100.00;97328.63;5137758;28;20043;-94
2022/11/19 13:55:59;;;;;;;6.07;2.92;;;;;;;9.87;100.00;97331.66;5139174;27;20051;-92
2022/11/19 13:58:32;;;;;;;9.82;4.15;;;;;;;9.89;100.00;97327.16;5138691;28;20035;-93
2022/11/19 14:01:18;;;;;;;5.75;2.70;;;;;;;9.92;100.00;97308.41;5140528;28;20064;-93
2022/11/19 14:03:58;;;;;;;7.60;2.80;;;;;;;9.83;100.00;97272.53;5117320;28;20040;-95
2022/11/19 14:06:36;;;;;;;5.40;2.83;;;;;;;9.84;100.00;97260.97;5116937;28;20086;-93
2022/11/19 14:09:17;;;;;;;6.25;3.92;;;;;;;9.78;100.00;97249.78;5119040;28;20067;-93
2022/11/19 14:12:06;;;;;;;7.80;3.72;;;;;;;9.78;100.00;97244.47;5152674;27;20047;-94
2022/11/19 14:38:38;;;;;;;6.38;3.40;;;;;;;9.96;100.00;97211.72;5119910;27;20373;-94
2022/11/19 14:41:27;;;;;;;7.68;4.10;;;;;;;9.88;100.00;97217.41;5119975;28;20078;-93
2022/11/19 14:44:07;;;;;;;6.28;4.05;;;;;;;9.88;100.00;97214.75;5120291;28;20104;-94
2022/11/19 14:46:33;;;;;;;9.05;5.90;;;;;;;9.90;100.00;97222.66;5123170;28;20534;-95
2022/11/19 14:49:03;;;;;;;7.85;5.00;;;;;;;9.76;100.00;97214.50;5098795;28;20052;-95
2022/11/19 14:51:33;;;;;;;7.25;4.70;;;;;;;9.80;100.00;97218.72;5092337;28;20040;-94
2022/11/19 14:54:07;;;;;;;10.10;5.55;;;;;;;10.00;100.00;97242.50;5105050;28;20048;-95
2022/11/19 14:56:37;;;;;;;9.20;4.53;;;;;;;9.92;100.00;97223.44;5107141;28;20052;-95
2022/11/19 14:59:19;;;;;;;9.82;5.50;;;;;;;10.07;100.00;97245.72;5103899;28;20071;-95
2022/11/19 15:01:59;;;;;;;9.18;4.57;;;;;;;10.02;100.00;97224.72;5108264;28;20048;-96
2022/11/19 15:04:33;;;;;;;7.90;4.53;;;;;;;9.98;100.00;97220.47;5106523;28;20053;-96
2022/11/19 15:13:26;;;;;;;6.13;3.78;;;;;;;9.91;100.00;97235.00;5083835;28;20048;-94
2022/11/19 15:16:26;;;;;;;6.90;4.30;;;;;;;10.07;100.00;97270.47;5069288;28;20043;-96
2022/11/19 15:19:24;;;;;;;5.45;3.38;;;;;;;9.92;100.00;97255.31;5080995;28;20041;-95
2022/11/19 15:22:25;;;;;;;5.47;3.25;;;;;;;9.94;100.00;97242.81;5081448;28;20049;-93
2022/11/19 15:25:12;;;;;;;11.50;7.68;;;;;;;10.04;100.00;97270.66;5066785;28;20060;-96
2022/11/19 15:27:52;;;;;;;7.90;4.50;;;;;;;9.88;100.00;97245.75;5064360;28;20052;-95
2022/11/19 15:30:33;;;;;;;;;;;;;;;10.09;100.00;97275.72;5069033;28;20036;-96
2022/11/19 15:33:30;;;;;;;;;;;;;;;;;;;;;
2022/11/19 15:36:41;;;;;;;6.07;3.25;;;;;;;9.92;100.00;97219.94;5068955;28;20052;-95
2022/11/19 15:39:22;;;;;;;6.28;3.80;;;;;;;10.15;100.00;97253.28;5054463;28;20116;-96
2022/11/19 15:42:02;;;;;;;9.07;4.50;;;;;;;9.99;100.00;97222.19;5045405;28;20041;-93
2022/11/19 15:47:14;;;;;;;11.88;7.43;;;;;;;9.94;100.00;97221.56;5152513;22;20057;-94
2022/11/19 15:57:41;;;;;;;6.60;3.88;;;;;;;9.92;100.00;97209.31;5314752;22;20057;-97
2022/11/19 16:34:48;;;;;;;6.85;5.00;;;;;;;10.04;100.00;97254.72;5052335;26;20507;-95
2022/11/19 16:52:50;;;;;;;10.60;5.68;;;;;;;9.90;100.00;97217.34;5024906;28;20065;-95
2022/11/19 16:55:37;;;;;;;10.00;4.90;;;;;;;9.91;100.00;97212.88;5026764;28;20045;-94
2022/11/19 16:58:14;;;;;;;14.00;5.10;;;;;;;9.90;100.00;97225.31;5029416;28;20064;-94
2022/11/19 17:00:47;;;;;;;8.48;4.80;;;;;;;9.80;100.00;97222.25;5027853;28;20060;-95
2022/11/19 17:03:28;;;;;;;7.70;3.90;;;;;;;9.82;100.00;97219.50;5029459;28;20056;-95
2022/11/19 17:05:58;;;;;;;7.55;4.78;;;;;;;9.96;100.00;97253.38;5028071;28;20049;-95
2022/11/19 17:08:30;;;;;;;16.85;6.78;;;;;;;9.81;100.00;97220.44;5029048;28;20049;-96
2022/11/19 17:28:34;;;;;;;6.38;4.53;;;;;;;9.94;100.00;97252.56;6386897;22;20006;-95
2022/11/19 17:31:37;;;;;;;9.63;6.90;;;;;;;9.93;100.00;97254.38;6372571;22;20010;-95
2022/11/19 17:34:27;;;;;;;15.25;9.10;;;;;;;9.82;100.00;97244.28;6371867;22;20022;-96
2022/11/19 17:46:57;;;;;;;5.65;3.35;;;;;;;9.93;100.00;97238.44;5145067;27;20378;-95
2022/11/19 17:59:23;;;;;;;5.20;3.50;;;;;;;9.95;100.00;97228.59;5877071;22;20082;-95
2022/11/19 18:01:49;;;;;;;5.95;4.15;;;;;;;10.08;100.00;97253.63;5091628;28;20554;-95
2022/11/19 18:04:17;;;;;;;3.58;2.50;;;;;;;9.98;100.00;97246.19;5088068;28;20048;-95
2022/11/19 18:06:44;;;;;;;3.35;2.50;;;;;;;9.90;100.00;97235.94;5085252;28;20070;-94
2022/11/19 18:09:10;;;;;;;3.78;2.72;;;;;;;9.91;100.00;97240.31;5086230;28;20116;-93
2022/11/19 18:11:38;;;;;;;3.42;2.40;;;;;;;9.89;100.00;97242.19;5082965;28;20053;-95
2022/11/19 18:14:08;;;;;;;3.85;2.47;;;;;;;9.85;100.00;97243.25;5081372;28;20060;-95
2022/11/19 18:16:38;;;;;;;5.22;3.30;;;;;;;10.03;100.00;97274.22;5083003;28;20501;-95
2022/11/19 18:19:09;;;;;;;4.15;2.80;;;;;;;9.82;100.00;97256.66;5084884;28;20045;-95
2022/11/19 18:21:38;;;;;;;4.05;2.65;;;;;;;9.92;100.00;97262.41;5082580;28;20044;-95
2022/11/19 18:24:08;;;;;;;5.75;3.38;;;;;;;9.92;100.00;97273.88;5080221;28;20131;-93
2022/11/19 18:26:38;;;;;;;6.10;3.40;;;;;;;9.82;100.00;97259.31;5079811;28;20048;-92
2022/11/19 18:29:06;;;;;;;6.38;4.07;;;;;;;9.87;100.00;97283.88;5069288;28;20490;-94
2022/11/19 18:31:34;;;;;;;6.67;3.50;;;;;;;9.65;100.00;97261.00;5080267;28;20509;-94
2022/11/19 18:34:00;;;;;;;5.38;3.67;;;;;;;9.67;100.00;97252.94;5064610;28;20495;-96
2022/11/19 18:36:29;;;;;;;5.03;3.10;;;;;;;9.71;100.00;97264.28;5059629;28;20045;-96
2022/11/19 18:39:01;;;;;;;4.55;2.92;;;;;;;9.68;100.00;97267.09;5059834;28;20045;-95
2022/11/19 18:41:29;;;;;;;4.65;2.78;;;;;;;9.67;100.00;97284.81;5058778;28;20049;-95
2022/11/19 18:46:56;;;;;;;3.92;2.47;;;;;;;9.63;100.00;97288.56;5078016;27;20841;-94
2022/11/19 18:49:22;;;;;;;3.45;2.30;;;;;;;9.68;100.00;97296.31;5077758;28;20052;-95
2022/11/19 18:51:48;;;;;;;4.20;2.10;;;;;;;9.63;100.00;97292.06;5081233;28;20094;-94
2022/11/19 18:54:14;;;;;;;4.78;2.10;;;;;;;9.54;100.00;97281.00;5078717;28;20052;-94
2022/11/19 18:56:43;;;;;;;3.40;2.45;;;;;;;9.56;100.00;97295.91;5080634;28;20037;-94
2022/11/19 18:59:10;;;;;;;3.45;2.58;;;;;;;9.55;100.00;97296.00;5079654;28;20117;-93
2022/11/19 19:01:36;;;;;;;5.47;3.75;;;;;;;9.63;100.00;97331.03;5080643;28;20043;-94
2022/11/19 19:04:04;;;;;;;4.53;3.13;;;;;;;9.63;100.00;97328.38;5077567;28;20044;-93
2022/11/19 19:06:30;;;;;;;4.68;3.53;;;;;;;9.37;100.00;97305.69;5077243;28;20041;-94
2022/11/19 19:08:56;;;;;;;4.93;3.80;;;;;;;9.35;100.00;97316.38;5078419;28;20056;-93
2022/11/19 19:14:23;;;;;;;5.32;3.55;;;;;;;9.41;100.00;97345.28;5162063;27;20901;-94
2022/11/19 19:16:50;;;;;;;3.83;2.72;;;;;;;9.39;100.00;97346.25;5122042;28;20047;-95
2022/11/19 19:19:18;;;;;;;3.70;2.50;;;;;;;9.39;100.00;97354.22;5124322;28;20043;-95
2022/11/19 19:21:44;;;;;;;3.90;2.70;;;;;;;9.34;100.00;97348.25;5117663;28;20497;-94
2022/11/19 19:24:10;;;;;;;4.00;3.05;;;;;;;9.31;100.00;97361.69;5117908;28;20039;-96
2022/11/19 19:26:36;;;;;;;4.68;2.33;;;;;;;9.43;100.00;97388.53;5112916;28;20050;-94
2022/11/19 19:29:04;;;;;;;5.85;3.20;;;;;;;9.32;100.00;97385.47;5102376;28;20051;-95
2022/11/19 19:31:32;;;;;;;6.22;3.47;;;;;;;9.19;100.00;97379.81;5121767;28;20039;-95
2022/11/19 19:33:58;;;;;;;13.90;6.15;;;;;;;9.27;100.00;97391.91;5127673;28;20040;-94